createdAt,value
2019-04-10T00:00:28.654Z,14.68
2019-04-10T00:01:34.108Z,18.07
2019-04-10T00:02:37.834Z,15.90
2019-04-10T00:03:43.696Z,13.20
2019-04-10T00:04:47.389Z,12.37
2019-04-10T00:05:52.055Z,15.90
2019-04-10T00:07:10.526Z,12.30
2019-04-10T00:08:01.880Z,13.62
2019-04-10T00:09:07.098Z,15.93
2019-04-10T00:10:11.782Z,16.82
2019-04-10T00:11:16.474Z,18.37
2019-04-10T00:12:21.206Z,12.43
2019-04-10T00:13:24.910Z,14.07
2019-04-10T00:14:28.551Z,19.07
2019-04-10T00:15:32.690Z,15.88
2019-04-10T00:16:36.362Z,17.57
2019-04-10T00:17:40.870Z,14.65
2019-04-10T00:18:45.009Z,15.40
2019-04-10T00:19:48.719Z,14.50
2019-04-10T00:20:53.263Z,15.18
2019-04-10T00:21:57.784Z,18.23
2019-04-10T00:23:02.438Z,13.80
2019-04-10T00:24:06.269Z,17.00
2019-04-10T00:25:10.708Z,13.98
2019-04-10T00:26:15.245Z,12.90
2019-04-10T00:27:18.894Z,17.23
2019-04-10T00:28:23.428Z,15.53
2019-04-10T00:29:27.957Z,14.23
2019-04-10T00:30:31.595Z,16.10
2019-04-10T00:31:35.217Z,12.68
2019-04-10T00:32:38.880Z,17.15
2019-04-10T00:33:43.173Z,16.23
2019-04-10T00:34:47.692Z,13.98
2019-04-10T00:35:51.967Z,14.50
2019-04-10T00:36:55.651Z,14.87
2019-04-10T00:37:59.569Z,14.43
2019-04-10T00:39:04.324Z,15.13
2019-04-10T00:40:08.827Z,16.05
2019-04-10T00:41:12.508Z,15.10
2019-04-10T00:42:16.850Z,16.30
2019-04-10T00:43:20.526Z,14.60
2019-04-10T00:44:24.128Z,16.00
2019-04-10T00:45:27.782Z,16.75
2019-04-10T00:46:32.469Z,13.60
2019-04-10T00:47:37.351Z,16.32
2019-04-10T00:48:41.763Z,12.98
2019-04-10T00:49:46.143Z,16.32
2019-04-10T00:50:50.779Z,12.50
2019-04-10T00:51:55.385Z,13.50
2019-04-10T00:52:59.164Z,12.70
2019-04-10T00:54:02.769Z,12.10
2019-04-10T00:55:06.518Z,12.85
2019-04-10T00:56:10.436Z,16.30
2019-04-10T00:57:14.950Z,11.80
2019-04-10T00:58:18.658Z,11.55
2019-04-10T00:59:22.294Z,13.22
2019-04-10T01:00:25.908Z,13.68
2019-04-10T01:01:29.843Z,12.18
2019-04-10T01:02:34.250Z,13.15
2019-04-10T01:03:44.024Z,13.90
2019-04-10T01:04:48.760Z,11.50
2019-04-10T01:05:52.517Z,18.10
2019-04-10T01:06:56.694Z,12.35
2019-04-10T01:08:00.374Z,12.68
2019-04-10T01:09:06.793Z,13.32
2019-04-10T01:10:11.029Z,10.98
2019-04-10T01:11:15.013Z,13.20
2019-04-10T01:12:19.488Z,12.43
2019-04-10T01:13:23.064Z,10.38
2019-04-10T01:14:26.734Z,9.90
2019-04-10T01:15:30.840Z,18.57
2019-04-10T01:16:35.389Z,13.08
2019-04-10T01:17:40.010Z,13.03
2019-04-10T01:18:44.011Z,15.08
2019-04-10T01:19:48.085Z,9.90
2019-04-10T01:20:51.763Z,15.10
2019-04-10T01:21:55.356Z,11.12
2019-04-10T01:22:59.385Z,13.08
2019-04-10T01:24:03.629Z,18.02
2019-04-10T01:25:08.264Z,10.85
2019-04-10T01:26:12.738Z,12.75
2019-04-10T01:27:16.465Z,13.68
2019-04-10T01:28:20.572Z,10.05
2019-04-10T01:29:25.108Z,13.18
2019-04-10T01:30:28.790Z,12.55
2019-04-10T01:31:32.396Z,13.15
2019-04-10T01:32:36.356Z,13.95
2019-04-10T01:33:40.909Z,11.63
2019-04-10T01:34:45.441Z,11.40
2019-04-10T01:35:49.183Z,17.92
2019-04-10T01:36:52.783Z,10.90
2019-04-10T01:38:00.777Z,15.13
2019-04-10T01:39:02.145Z,13.08
2019-04-10T01:40:07.782Z,14.20
2019-04-10T01:41:11.886Z,11.57
2019-04-10T01:42:16.493Z,11.38
2019-04-10T01:43:20.206Z,12.33
2019-04-10T01:44:24.721Z,12.40
2019-04-10T01:45:29.097Z,14.18
2019-04-10T01:46:34.465Z,13.15
2019-04-10T01:47:38.057Z,12.75
2019-04-10T01:48:41.885Z,12.60
2019-04-10T01:49:46.824Z,17.12
2019-04-10T01:50:50.803Z,12.90
2019-04-10T01:51:55.300Z,13.05
2019-04-10T01:52:59.603Z,14.07
2019-04-10T01:54:03.315Z,11.53
2019-04-10T01:55:17.301Z,14.05
2019-04-10T01:56:22.830Z,13.38
2019-04-10T01:57:17.570Z,18.10
2019-04-10T01:58:23.163Z,11.30
2019-04-10T01:59:27.969Z,14.93
2019-04-10T02:00:35.774Z,12.28
2019-04-10T02:01:50.478Z,16.73
2019-04-10T02:02:54.063Z,13.03
2019-04-10T02:03:58.501Z,12.47
2019-04-10T02:05:02.352Z,14.18
2019-04-10T02:06:07.152Z,17.85
2019-04-10T02:07:10.830Z,16.60
2019-04-10T02:08:17.154Z,12.33
2019-04-10T02:09:19.685Z,15.35
2019-04-10T02:10:23.830Z,17.75
2019-04-10T02:11:28.061Z,14.58
2019-04-10T02:12:31.757Z,13.30
2019-04-10T02:13:35.857Z,13.93
2019-04-10T02:14:40.385Z,11.53
2019-04-10T02:15:44.201Z,12.10
2019-04-10T02:16:47.840Z,14.65
2019-04-10T02:17:51.457Z,11.40
2019-04-10T02:18:55.067Z,13.32
2019-04-10T02:19:58.720Z,13.03
2019-04-10T02:21:03.251Z,12.63
2019-04-10T02:22:06.922Z,11.08
2019-04-10T02:23:10.522Z,13.22
2019-04-10T02:24:14.604Z,10.98
2019-04-10T02:25:18.270Z,9.90
2019-04-10T02:26:21.932Z,13.15
2019-04-10T02:27:26.628Z,12.07
2019-04-10T02:28:31.185Z,11.28
2019-04-10T02:29:35.662Z,10.60
2019-04-10T02:30:41.331Z,10.60
2019-04-10T02:31:46.130Z,11.10
2019-04-10T02:32:50.859Z,12.13
2019-04-10T02:33:57.016Z,10.78
2019-04-10T02:35:01.217Z,10.35
2019-04-10T02:36:05.620Z,13.05
2019-04-10T02:37:10.858Z,13.58
2019-04-10T02:38:30.548Z,18.42
2019-04-10T02:39:27.618Z,14.30
2019-04-10T02:40:25.593Z,11.75
2019-04-10T02:41:29.952Z,9.93
2019-04-10T02:42:34.426Z,11.97
2019-04-10T02:43:39.698Z,10.93
2019-04-10T02:44:44.016Z,11.30
2019-04-10T02:45:49.218Z,12.73
2019-04-10T02:46:54.927Z,11.33
2019-04-10T02:47:59.408Z,11.65
2019-04-10T02:49:04.076Z,10.23
2019-04-10T02:50:09.984Z,10.88
2019-04-10T02:51:13.753Z,11.45
2019-04-10T02:52:17.406Z,11.40
2019-04-10T02:53:21.616Z,17.77
2019-04-10T02:54:26.929Z,11.48
2019-04-10T02:55:31.380Z,11.75
2019-04-10T02:56:36.522Z,11.38
2019-04-10T02:57:41.390Z,10.08
2019-04-10T02:58:46.868Z,10.15
2019-04-10T02:59:51.185Z,10.30
2019-04-10T03:00:56.313Z,10.35
2019-04-10T03:02:00.370Z,13.28
2019-04-10T03:03:05.635Z,11.97
2019-04-10T03:04:11.214Z,11.55
2019-04-10T03:05:16.042Z,10.72
2019-04-10T03:06:20.654Z,11.22
2019-04-10T03:07:25.831Z,12.13
2019-04-10T03:08:46.802Z,12.40
2019-04-10T03:09:49.419Z,10.45
2019-04-10T03:10:47.488Z,12.37
2019-04-10T03:11:45.885Z,15.08
2019-04-10T03:12:49.808Z,11.18
2019-04-10T03:13:53.754Z,13.58
2019-04-10T03:14:59.187Z,11.57
2019-04-10T03:16:03.320Z,13.58
2019-04-10T03:17:07.987Z,14.43
2019-04-10T03:18:12.604Z,12.18
2019-04-10T03:19:17.047Z,9.60
2019-04-10T03:20:20.778Z,10.00
2019-04-10T03:21:24.393Z,11.60
2019-04-10T03:22:28.951Z,13.20
2019-04-10T03:23:33.641Z,13.43
2019-04-10T03:24:38.140Z,12.40
2019-04-10T03:25:41.763Z,18.00
2019-04-10T03:26:45.817Z,11.00
2019-04-10T03:27:50.369Z,12.90
2019-04-10T03:28:53.998Z,12.88
2019-04-10T03:29:57.686Z,10.30
2019-04-10T03:31:03.472Z,12.60
2019-04-10T03:32:28.587Z,11.48
2019-04-10T03:33:33.021Z,12.75
2019-04-10T03:34:40.549Z,11.20
2019-04-10T03:35:43.237Z,14.87
2019-04-10T03:36:47.584Z,14.80
2019-04-10T03:37:51.300Z,11.80
2019-04-10T03:39:00.141Z,13.98
2019-04-10T03:40:00.165Z,13.43
2019-04-10T03:41:04.066Z,10.30
2019-04-10T03:42:08.509Z,12.15
2019-04-10T03:43:12.220Z,12.03
2019-04-10T03:44:16.669Z,11.97
2019-04-10T03:45:20.342Z,11.97
2019-04-10T03:46:23.939Z,14.43
2019-04-10T03:47:27.527Z,13.30
2019-04-10T03:48:31.417Z,13.32
2019-04-10T03:49:36.071Z,50.60
2019-04-10T03:50:39.738Z,57.53
2019-04-10T03:51:43.358Z,22.48
2019-04-10T03:52:46.991Z,19.60
2019-04-10T03:53:50.856Z,18.42
2019-04-10T03:54:54.595Z,18.35
2019-04-10T03:55:59.130Z,16.45
2019-04-10T03:57:02.856Z,42.05
2019-04-10T03:58:07.143Z,35.10
2019-04-10T03:59:11.763Z,24.20
2019-04-10T04:00:16.196Z,22.80
2019-04-10T04:01:19.878Z,20.65
2019-04-10T04:02:24.004Z,26.65
2019-04-10T04:03:28.659Z,22.75
2019-04-10T04:04:33.160Z,16.48
2019-04-10T04:05:37.087Z,14.47
2019-04-10T04:06:41.881Z,12.80
2019-04-10T04:07:46.275Z,18.73
2019-04-10T04:09:01.302Z,14.50
2019-04-10T04:09:55.883Z,14.55
2019-04-10T04:10:59.552Z,14.68
2019-04-10T04:12:04.182Z,27.17
2019-04-10T04:13:09.019Z,14.40
2019-04-10T04:14:12.753Z,12.85
2019-04-10T04:15:16.413Z,15.05
2019-04-10T04:16:20.151Z,14.70
2019-04-10T04:17:24.202Z,12.07
2019-04-10T04:18:28.888Z,17.02
2019-04-10T04:19:32.710Z,13.50
2019-04-10T04:20:37.154Z,23.70
2019-04-10T04:21:41.727Z,13.35
2019-04-10T04:22:46.125Z,14.83
2019-04-10T04:23:50.861Z,13.75
2019-04-10T04:24:55.758Z,13.15
2019-04-10T04:25:59.348Z,12.45
2019-04-10T04:27:02.985Z,26.57
2019-04-10T04:28:06.723Z,13.03
2019-04-10T04:29:10.376Z,15.32
2019-04-10T04:30:14.693Z,12.73
2019-04-10T04:31:18.483Z,13.50
2019-04-10T04:32:22.096Z,12.33
2019-04-10T04:33:25.709Z,12.53
2019-04-10T04:34:29.343Z,14.25
2019-04-10T04:35:32.988Z,14.30
2019-04-10T04:36:37.351Z,14.63
2019-04-10T04:37:42.169Z,11.55
2019-04-10T04:38:46.148Z,13.35
2019-04-10T04:39:49.930Z,14.33
2019-04-10T04:40:54.826Z,16.10
2019-04-10T04:41:58.800Z,14.35
2019-04-10T04:43:03.556Z,14.95
2019-04-10T04:44:08.126Z,12.65
2019-04-10T04:45:12.755Z,14.43
2019-04-10T04:46:16.348Z,14.98
2019-04-10T04:47:19.998Z,15.45
2019-04-10T04:48:24.315Z,12.93
2019-04-10T04:49:28.385Z,11.33
2019-04-10T04:50:32.013Z,14.45
2019-04-10T04:51:35.629Z,12.28
2019-04-10T04:52:39.267Z,14.33
2019-04-10T04:53:44.009Z,10.80
2019-04-10T04:54:47.791Z,16.97
2019-04-10T04:55:51.516Z,14.68
2019-04-10T04:56:56.050Z,14.85
2019-04-10T04:57:59.872Z,11.05
2019-04-10T04:59:03.637Z,20.08
2019-04-10T05:00:07.793Z,13.60
2019-04-10T05:01:12.591Z,12.53
2019-04-10T05:02:16.259Z,14.35
2019-04-10T05:03:20.791Z,12.03
2019-04-10T05:04:25.049Z,14.75
2019-04-10T05:05:29.302Z,13.58
2019-04-10T05:06:33.024Z,13.85
2019-04-10T05:07:37.591Z,14.13
2019-04-10T05:08:42.048Z,12.45
2019-04-10T05:09:46.031Z,10.25
2019-04-10T05:10:50.129Z,13.78
2019-04-10T05:11:53.752Z,14.68
2019-04-10T05:12:57.844Z,12.70
2019-04-10T05:14:02.700Z,12.05
2019-04-10T05:15:07.474Z,12.05
2019-04-10T05:16:12.541Z,14.75
2019-04-10T05:17:17.984Z,14.55
2019-04-10T05:18:21.412Z,14.33
2019-04-10T05:19:25.629Z,13.05
2019-04-10T05:20:39.306Z,14.53
2019-04-10T05:21:35.096Z,13.53
2019-04-10T05:22:39.600Z,13.93
2019-04-10T05:23:43.398Z,13.88
2019-04-10T05:24:47.001Z,16.93
2019-04-10T05:25:51.826Z,15.95
2019-04-10T05:26:55.635Z,17.27
2019-04-10T05:27:59.421Z,14.73
2019-04-10T05:29:03.130Z,15.50
2019-04-10T05:30:08.395Z,17.75
2019-04-10T05:31:12.111Z,20.77
2019-04-10T05:32:16.363Z,14.50
2019-04-10T05:33:20.549Z,35.70
2019-04-10T05:34:25.423Z,21.25
2019-04-10T05:35:29.862Z,12.60
2019-04-10T05:36:33.903Z,16.27
2019-04-10T05:37:37.938Z,16.73
2019-04-10T05:38:41.863Z,21.87
2019-04-10T05:39:50.458Z,18.52
2019-04-10T05:40:51.035Z,18.17
2019-04-10T05:41:55.232Z,16.17
2019-04-10T05:42:59.604Z,16.05
2019-04-10T05:44:03.916Z,18.02
2019-04-10T05:45:07.649Z,17.62
2019-04-10T05:46:12.360Z,12.18
2019-04-10T05:47:17.027Z,18.82
2019-04-10T05:48:22.929Z,14.05
2019-04-10T05:49:26.170Z,16.05
2019-04-10T05:50:30.209Z,16.85
2019-04-10T05:51:33.980Z,17.37
2019-04-10T05:52:39.496Z,14.68
2019-04-10T05:53:43.158Z,14.18
2019-04-10T05:54:47.270Z,23.80
2019-04-10T05:55:51.614Z,13.85
2019-04-10T05:56:55.290Z,16.52
2019-04-10T05:57:59.455Z,16.67
2019-04-10T05:59:03.083Z,15.50
2019-04-10T06:00:10.546Z,11.60
2019-04-10T06:01:14.233Z,12.90
2019-04-10T06:02:17.966Z,13.00
2019-04-10T06:03:22.664Z,13.85
2019-04-10T06:04:27.172Z,13.10
2019-04-10T06:05:32.079Z,15.98
2019-04-10T06:06:36.504Z,14.03
2019-04-10T06:07:41.267Z,13.68
2019-04-10T06:08:44.975Z,14.25
2019-04-10T06:09:57.376Z,14.20
2019-04-10T06:10:54.008Z,16.10
2019-04-10T06:11:57.614Z,13.05
2019-04-10T06:13:01.238Z,15.65
2019-04-10T06:14:05.265Z,15.10
2019-04-10T06:15:09.174Z,11.65
2019-04-10T06:16:12.835Z,12.80
2019-04-10T06:17:16.489Z,11.78
2019-04-10T06:18:20.775Z,13.00
2019-04-10T06:19:25.398Z,10.55
2019-04-10T06:20:29.315Z,11.85
2019-04-10T06:21:33.074Z,15.65
2019-04-10T06:22:36.915Z,12.43
2019-04-10T06:23:41.374Z,13.28
2019-04-10T06:24:45.149Z,11.43
2019-04-10T06:25:49.897Z,17.23
2019-04-10T06:26:54.117Z,13.15
2019-04-10T06:27:58.924Z,11.40
2019-04-10T06:29:02.635Z,15.20
2019-04-10T06:30:08.040Z,15.55
2019-04-10T06:31:12.514Z,19.77
2019-04-10T06:32:17.066Z,14.28
2019-04-10T06:33:20.736Z,13.13
2019-04-10T06:34:24.878Z,12.47
2019-04-10T06:35:28.572Z,14.75
2019-04-10T06:36:33.315Z,13.62
2019-04-10T06:37:38.009Z,14.35
2019-04-10T06:38:41.782Z,14.73
2019-04-10T06:39:46.402Z,18.32
2019-04-10T06:40:50.337Z,12.23
2019-04-10T06:41:54.013Z,12.78
2019-04-10T06:42:58.397Z,12.60
2019-04-10T06:44:03.601Z,12.40
2019-04-10T06:45:07.986Z,12.05
2019-04-10T06:46:12.503Z,17.42
2019-04-10T06:47:16.111Z,13.93
2019-04-10T06:48:19.728Z,13.03
2019-04-10T06:49:23.341Z,12.03
2019-04-10T06:50:27.041Z,13.93
2019-04-10T06:51:31.343Z,13.50
2019-04-10T06:52:35.012Z,13.38
2019-04-10T06:53:39.344Z,11.68
2019-04-10T06:54:43.228Z,12.55
2019-04-10T06:55:46.955Z,18.62
2019-04-10T06:56:50.551Z,14.38
2019-04-10T06:57:57.559Z,14.03
2019-04-10T06:59:00.356Z,12.45
2019-04-10T07:00:14.485Z,27.05
2019-04-10T07:01:16.680Z,13.72
2019-04-10T07:02:27.309Z,15.08
2019-04-10T07:03:43.715Z,12.90
2019-04-10T07:04:42.836Z,16.80
2019-04-10T07:05:43.098Z,16.67
2019-04-10T07:06:54.894Z,14.38
2019-04-10T07:07:51.980Z,15.58
2019-04-10T07:08:53.292Z,13.22
2019-04-10T07:09:58.461Z,22.32
2019-04-10T07:11:08.170Z,27.60
2019-04-10T07:12:08.009Z,17.05
2019-04-10T07:13:13.075Z,16.40
2019-04-10T07:14:18.128Z,21.12
2019-04-10T07:15:23.849Z,16.82
2019-04-10T07:16:29.990Z,14.63
2019-04-10T07:17:35.607Z,12.68
2019-04-10T07:18:38.628Z,11.85
2019-04-10T07:19:44.342Z,16.25
2019-04-10T07:20:48.988Z,17.45
2019-04-10T07:21:52.587Z,14.18
2019-04-10T07:22:56.966Z,15.25
2019-04-10T07:24:05.380Z,16.25
2019-04-10T07:25:09.355Z,18.52
2019-04-10T07:26:17.337Z,14.73
2019-04-10T07:27:17.541Z,18.30
2019-04-10T07:28:21.562Z,13.35
2019-04-10T07:29:27.759Z,12.80
2019-04-10T07:30:31.760Z,13.53
2019-04-10T07:31:37.763Z,14.53
2019-04-10T07:32:43.277Z,16.02
2019-04-10T07:33:50.021Z,13.45
2019-04-10T07:34:51.352Z,13.93
2019-04-10T07:35:56.586Z,19.40
2019-04-10T07:37:00.350Z,17.40
2019-04-10T07:38:04.015Z,12.95
2019-04-10T07:39:08.018Z,15.20
2019-04-10T07:40:12.257Z,13.13
2019-04-10T07:41:21.238Z,12.93
2019-04-10T07:42:28.428Z,13.15
2019-04-10T07:43:28.923Z,13.75
2019-04-10T07:44:31.753Z,16.37
2019-04-10T07:45:35.645Z,17.02
2019-04-10T07:46:40.136Z,12.00
2019-04-10T07:47:44.107Z,14.38
2019-04-10T07:48:47.972Z,16.27
2019-04-10T07:49:52.534Z,13.80
2019-04-10T07:50:56.196Z,16.75
2019-04-10T07:52:01.915Z,11.65
2019-04-10T07:53:06.067Z,15.50
2019-04-10T07:54:09.772Z,14.60
2019-04-10T07:55:13.467Z,14.53
2019-04-10T07:56:20.400Z,24.63
2019-04-10T07:57:22.563Z,17.98
2019-04-10T07:58:26.975Z,15.25
2019-04-10T07:59:31.275Z,18.95
2019-04-10T08:00:34.982Z,15.30
2019-04-10T08:01:40.450Z,15.38
2019-04-10T08:02:43.877Z,15.15
2019-04-10T08:03:47.932Z,13.43
2019-04-10T08:04:51.704Z,13.20
2019-04-10T08:05:55.401Z,18.98
2019-04-10T08:06:59.023Z,19.27
2019-04-10T08:08:03.006Z,13.28
2019-04-10T08:09:08.443Z,17.40
2019-04-10T08:10:12.178Z,17.25
2019-04-10T08:11:15.802Z,18.52
2019-04-10T08:12:19.416Z,24.77
2019-04-10T08:13:23.051Z,15.38
2019-04-10T08:14:27.463Z,14.07
2019-04-10T08:15:31.564Z,11.83
2019-04-10T08:16:35.232Z,14.65
2019-04-10T08:17:39.046Z,14.23
2019-04-10T08:18:43.476Z,17.87
2019-04-10T08:19:47.102Z,15.85
2019-04-10T08:20:50.910Z,18.12
2019-04-10T08:21:54.882Z,13.18
2019-04-10T08:22:59.453Z,16.45
2019-04-10T08:24:03.151Z,14.95
2019-04-10T08:25:08.731Z,13.25
2019-04-10T08:26:12.605Z,17.42
2019-04-10T08:27:17.141Z,16.52
2019-04-10T08:28:21.954Z,13.62
2019-04-10T08:29:26.028Z,13.80
2019-04-10T08:30:30.004Z,14.75
2019-04-10T08:31:33.630Z,17.23
2019-04-10T08:32:50.920Z,13.45
2019-04-10T08:33:42.548Z,14.78
2019-04-10T08:34:46.437Z,16.85
2019-04-10T08:35:50.043Z,13.95
2019-04-10T08:36:55.064Z,19.48
2019-04-10T08:37:59.264Z,13.38
2019-04-10T08:39:02.937Z,14.05
2019-04-10T08:40:09.427Z,17.02
2019-04-10T08:41:13.291Z,16.32
2019-04-10T08:42:16.983Z,16.32
2019-04-10T08:43:20.592Z,18.27
2019-04-10T08:44:24.381Z,18.75
2019-04-10T08:45:38.642Z,13.78
2019-04-10T08:46:33.684Z,18.50
2019-04-10T08:47:37.572Z,18.75
2019-04-10T08:48:41.289Z,22.00
2019-04-10T08:49:45.295Z,19.12
2019-04-10T08:50:48.983Z,18.45
2019-04-10T08:51:52.604Z,16.02
2019-04-10T08:52:56.228Z,15.60
2019-04-10T08:54:00.659Z,21.00
2019-04-10T08:55:05.868Z,17.85
2019-04-10T08:56:10.659Z,20.40
2019-04-10T08:57:14.318Z,15.90
2019-04-10T08:58:18.813Z,20.52
2019-04-10T08:59:23.643Z,15.03
2019-04-10T09:00:27.402Z,19.60
2019-04-10T09:01:31.514Z,17.57
2019-04-10T09:02:35.916Z,18.80
2019-04-10T09:03:39.602Z,17.57
2019-04-10T09:04:43.285Z,16.37
2019-04-10T09:05:46.997Z,16.10
2019-04-10T09:06:51.541Z,15.13
2019-04-10T09:07:55.201Z,17.60
2019-04-10T09:08:59.338Z,15.30
2019-04-10T09:10:04.158Z,16.35
2019-04-10T09:11:07.792Z,15.98
2019-04-10T09:12:11.491Z,16.60
2019-04-10T09:13:15.112Z,16.70
2019-04-10T09:14:19.077Z,16.10
2019-04-10T09:15:23.529Z,17.52
2019-04-10T09:16:27.259Z,22.73
2019-04-10T09:17:31.366Z,20.68
2019-04-10T09:18:35.069Z,17.35
2019-04-10T09:19:38.754Z,14.25
2019-04-10T09:20:42.699Z,16.00
2019-04-10T09:21:46.348Z,16.70
2019-04-10T09:23:13.416Z,18.75
2019-04-10T09:23:57.421Z,15.00
2019-04-10T09:25:00.725Z,18.77
2019-04-10T09:26:04.429Z,19.20
2019-04-10T09:27:08.857Z,15.40
2019-04-10T09:28:12.463Z,19.52
2019-04-10T09:29:16.144Z,14.90
2019-04-10T09:30:20.473Z,18.20
2019-04-10T09:31:24.217Z,17.62
2019-04-10T09:32:28.683Z,21.37
2019-04-10T09:33:32.524Z,15.18
2019-04-10T09:34:36.178Z,21.23
2019-04-10T09:35:40.530Z,21.12
2019-04-10T09:36:44.127Z,22.90
2019-04-10T09:37:48.360Z,21.00
2019-04-10T09:38:52.837Z,14.60
2019-04-10T09:39:56.630Z,18.00
2019-04-10T09:41:00.250Z,26.27
2019-04-10T09:42:04.037Z,22.90
2019-04-10T09:43:07.685Z,27.50
2019-04-10T09:44:12.274Z,14.25
2019-04-10T09:45:16.349Z,22.02
2019-04-10T09:46:20.746Z,16.75
2019-04-10T09:47:24.884Z,16.90
2019-04-10T09:48:28.609Z,15.40
2019-04-10T09:49:38.943Z,18.60
2019-04-10T09:50:37.537Z,18.17
2019-04-10T09:51:42.383Z,18.15
2019-04-10T09:52:46.265Z,19.25
2019-04-10T09:53:51.009Z,18.07
2019-04-10T09:54:55.284Z,15.70
2019-04-10T09:55:58.992Z,18.42
2019-04-10T09:57:03.304Z,18.45
2019-04-10T09:58:07.118Z,17.02
2019-04-10T09:59:11.695Z,14.93
2019-04-10T10:00:17.482Z,17.45
2019-04-10T10:01:22.063Z,18.27
2019-04-10T10:02:25.789Z,15.60
2019-04-10T10:03:30.310Z,17.37
2019-04-10T10:04:33.936Z,19.42
2019-04-10T10:05:37.601Z,19.70
2019-04-10T10:06:41.285Z,17.25
2019-04-10T10:07:45.189Z,22.60
2019-04-10T10:08:50.102Z,22.13
2019-04-10T10:09:55.147Z,18.37
2019-04-10T10:10:59.760Z,17.30
2019-04-10T10:12:03.737Z,16.48
2019-04-10T10:13:07.715Z,21.15
2019-04-10T10:14:12.499Z,16.15
2019-04-10T10:15:16.944Z,17.95
2019-04-10T10:16:21.002Z,19.02
2019-04-10T10:17:24.684Z,18.35
2019-04-10T10:18:28.293Z,16.55
2019-04-10T10:19:32.204Z,19.10
2019-04-10T10:20:35.826Z,18.77
2019-04-10T10:21:40.508Z,16.40
2019-04-10T10:22:45.331Z,18.67
2019-04-10T10:23:49.793Z,17.95
2019-04-10T10:24:53.512Z,16.40
2019-04-10T10:25:57.136Z,16.32
2019-04-10T10:27:01.807Z,17.95
2019-04-10T10:28:05.677Z,17.20
2019-04-10T10:29:11.271Z,19.12
2019-04-10T10:30:16.261Z,19.05
2019-04-10T10:31:20.181Z,20.48
2019-04-10T10:32:24.683Z,30.68
2019-04-10T10:33:28.314Z,19.98
2019-04-10T10:34:31.971Z,21.37
2019-04-10T10:35:35.657Z,18.55
2019-04-10T10:36:41.921Z,18.45
2019-04-10T10:37:44.512Z,17.07
2019-04-10T10:38:48.190Z,18.77
2019-04-10T10:39:52.768Z,23.05
2019-04-10T10:40:57.034Z,18.10
2019-04-10T10:42:00.760Z,20.80
2019-04-10T10:43:04.456Z,17.50
2019-04-10T10:44:08.974Z,23.95
2019-04-10T10:45:14.438Z,17.17
2019-04-10T10:46:18.162Z,20.35
2019-04-10T10:47:22.269Z,22.37
2019-04-10T10:48:25.874Z,22.32
2019-04-10T10:49:30.576Z,18.77
2019-04-10T10:50:34.277Z,19.02
2019-04-10T10:51:39.138Z,24.40
2019-04-10T10:52:43.821Z,18.45
2019-04-10T10:53:48.277Z,21.00
2019-04-10T10:54:51.944Z,19.35
2019-04-10T10:55:56.026Z,22.77
2019-04-10T10:57:00.563Z,20.30
2019-04-10T10:58:04.277Z,15.85
2019-04-10T10:59:07.952Z,19.73
2019-04-10T11:00:13.302Z,22.05
2019-04-10T11:01:17.876Z,23.47
2019-04-10T11:02:21.674Z,24.07
2019-04-10T11:03:26.464Z,22.02
2019-04-10T11:04:30.085Z,18.62
2019-04-10T11:05:35.005Z,21.20
2019-04-10T11:06:49.709Z,21.87
2019-04-10T11:07:44.043Z,22.93
2019-04-10T11:08:47.843Z,21.05
2019-04-10T11:09:52.942Z,25.08
2019-04-10T11:10:58.034Z,20.92
2019-04-10T11:12:03.223Z,20.05
2019-04-10T11:13:07.156Z,19.12
2019-04-10T11:14:11.069Z,23.40
2019-04-10T11:15:14.822Z,22.13
2019-04-10T11:16:20.448Z,26.70
2019-04-10T11:17:25.493Z,26.93
2019-04-10T11:18:30.727Z,20.82
2019-04-10T11:19:35.497Z,19.70
2019-04-10T11:20:39.473Z,21.27
2019-04-10T11:21:43.178Z,28.98
2019-04-10T11:22:47.436Z,26.70
2019-04-10T11:23:51.125Z,28.45
2019-04-10T11:24:55.730Z,20.32
2019-04-10T11:25:59.784Z,24.07
2019-04-10T11:27:04.272Z,21.25
2019-04-10T11:28:08.019Z,25.55
2019-04-10T11:29:11.859Z,31.12
2019-04-10T11:30:16.112Z,28.12
2019-04-10T11:31:21.124Z,20.17
2019-04-10T11:32:26.410Z,23.55
2019-04-10T11:33:30.742Z,22.02
2019-04-10T11:34:35.545Z,23.25
2019-04-10T11:35:39.723Z,20.05
2019-04-10T11:36:44.058Z,19.85
2019-04-10T11:38:55.389Z,24.52
2019-04-10T11:39:58.682Z,19.62
2019-04-10T11:41:03.558Z,25.32
2019-04-10T11:42:09.955Z,31.12
2019-04-10T11:43:13.595Z,21.57
2019-04-10T11:45:23.035Z,22.30
2019-04-10T11:46:31.092Z,35.48
2019-04-10T11:47:35.475Z,24.00
2019-04-10T11:48:39.114Z,23.50
2019-04-10T11:49:45.185Z,27.85
2019-04-10T11:50:50.874Z,19.52
2019-04-10T11:51:56.666Z,26.68
2019-04-10T11:53:01.717Z,26.82
2019-04-10T11:54:08.615Z,22.58
2019-04-10T11:55:15.590Z,23.05
2019-04-10T11:56:17.966Z,24.43
2019-04-10T11:57:22.876Z,25.32
2019-04-10T11:58:28.920Z,30.72
2019-04-10T11:59:35.645Z,24.90
2019-04-10T12:01:46.319Z,28.45
2019-04-10T12:03:56.732Z,25.23
2019-04-10T12:05:07.432Z,23.00
2019-04-10T12:06:06.290Z,22.32
2019-04-10T12:07:25.100Z,25.92
2019-04-10T12:10:17.001Z,29.80
2019-04-10T12:11:31.580Z,20.68
2019-04-10T12:12:35.440Z,20.20
2019-04-10T12:13:39.102Z,21.57
2019-04-10T12:14:43.638Z,30.80
2019-04-10T12:15:48.320Z,31.17
2019-04-10T12:16:52.161Z,23.35
2019-04-10T12:17:55.791Z,22.73
2019-04-10T12:18:59.436Z,22.35
2019-04-10T12:20:04.728Z,23.47
2019-04-10T12:21:09.368Z,20.57
2019-04-10T12:22:13.652Z,22.73
2019-04-10T12:23:17.419Z,22.32
2019-04-10T12:24:21.768Z,21.48
2019-04-10T12:25:25.489Z,25.25
2019-04-10T12:26:29.239Z,23.10
2019-04-10T12:27:33.516Z,19.17
2019-04-10T12:28:38.190Z,22.17
2019-04-10T12:29:42.616Z,21.42
2019-04-10T12:30:46.206Z,19.00
2019-04-10T12:31:50.292Z,24.00
2019-04-10T12:32:54.821Z,28.65
2019-04-10T12:33:59.863Z,21.57
2019-04-10T12:35:04.733Z,23.92
2019-04-10T12:36:10.202Z,20.68
2019-04-10T12:37:13.927Z,22.35
2019-04-10T12:38:17.815Z,20.77
2019-04-10T12:39:22.562Z,23.30
2019-04-10T12:40:26.582Z,29.27
2019-04-10T12:41:31.119Z,19.80
2019-04-10T12:42:34.759Z,21.70
2019-04-10T12:43:38.426Z,23.65
2019-04-10T12:44:42.789Z,18.70
2019-04-10T12:45:46.566Z,23.30
2019-04-10T12:46:51.166Z,20.43
2019-04-10T12:47:54.859Z,22.20
2019-04-10T12:49:00.103Z,22.82
2019-04-10T12:50:05.940Z,24.47
2019-04-10T12:51:09.863Z,34.13
2019-04-10T12:52:14.359Z,23.27
2019-04-10T12:53:19.121Z,20.32
2019-04-10T12:54:23.775Z,22.55
2019-04-10T12:55:28.312Z,18.02
2019-04-10T12:56:32.453Z,18.50
2019-04-10T12:57:37.010Z,21.12
2019-04-10T12:58:40.659Z,22.40
2019-04-10T12:59:44.329Z,21.17
2019-04-10T13:00:48.112Z,24.35
2019-04-10T13:01:51.745Z,21.62
2019-04-10T13:02:55.503Z,24.10
2019-04-10T13:03:59.871Z,23.30
2019-04-10T13:05:05.222Z,23.15
2019-04-10T13:06:09.538Z,22.95
2019-04-10T13:07:13.655Z,24.43
2019-04-10T13:08:22.892Z,25.08
2019-04-10T13:09:24.122Z,24.20
2019-04-10T13:10:27.855Z,21.68
2019-04-10T13:11:32.251Z,28.47
2019-04-10T13:12:35.901Z,22.70
2019-04-10T13:13:39.574Z,23.05
2019-04-10T13:14:43.248Z,23.00
2019-04-10T13:15:47.642Z,24.20
2019-04-10T13:16:52.191Z,25.45
2019-04-10T13:17:56.996Z,23.20
2019-04-10T13:19:00.645Z,22.50
2019-04-10T13:20:07.361Z,22.17
2019-04-10T13:21:11.138Z,24.30
2019-04-10T13:22:15.845Z,25.60
2019-04-10T13:23:20.473Z,25.12
2019-04-10T13:24:24.137Z,21.90
2019-04-10T13:25:27.793Z,20.17
2019-04-10T13:26:32.320Z,19.32
2019-04-10T13:27:36.859Z,20.35
2019-04-10T13:28:41.502Z,22.20
2019-04-10T13:29:45.189Z,20.60
2019-04-10T13:30:53.195Z,24.00
2019-04-10T13:31:54.193Z,18.70
2019-04-10T13:32:58.286Z,20.32
2019-04-10T13:34:02.807Z,22.20
2019-04-10T13:35:08.109Z,23.05
2019-04-10T13:36:11.853Z,20.40
2019-04-10T13:37:15.787Z,21.25
2019-04-10T13:38:26.635Z,21.73
2019-04-10T13:39:24.719Z,29.27
2019-04-10T13:40:28.458Z,19.07
2019-04-10T13:41:32.358Z,19.07
2019-04-10T13:42:37.017Z,23.73
2019-04-10T13:43:40.823Z,21.93
2019-04-10T13:44:44.679Z,22.10
2019-04-10T13:45:48.664Z,24.35
2019-04-10T13:46:53.177Z,24.52
2019-04-10T13:47:56.833Z,18.92
2019-04-10T13:49:00.462Z,27.52
2019-04-10T13:50:06.444Z,24.05
2019-04-10T13:51:10.949Z,22.58
2019-04-10T13:52:14.607Z,22.10
2019-04-10T13:53:18.202Z,22.25
2019-04-10T13:54:22.769Z,20.30
2019-04-10T13:55:26.535Z,21.65